• Join FlightAware (Why Join?)
  • Login
  • US Flag 
12:39AM EDT


 

Airport Tracker/Info


-or-


 

Live Flight TrackerFlight Track Log ✈ UPS1121 ✈ 26-Jun-2013 ✈ KALB - KBDL

Flight Track Log - Related Links

Times and Time Zones

All times are in EDT time to prevent confusion due to time zone crossing. See the UPS1121 flight status page for this flight to view local times or setup timezone preferences in your user account.

Time Position Orientation Groundspeed Altitude Reporting Facility
EDT Latitude Longitude Course Direction KTS MPH feet Rate Location/Type
08:32PM 42.7339 -73.8081 154° Southeast 152 175 1,700  Level Boston Center
08:34PM 42.6822 -73.7731 154° Southeast 231 266 4,000 2,520 Climbing Boston Center
08:35PM 42.6372 -73.6961 128° Southeast 241 277 7,100 3,060 Climbing Boston Center
08:36PM 42.5903 -73.6161 129° Southeast 288 331 10,200 1,920 Climbing Boston Center
08:37PM 42.5267 -73.5050 128° Southeast 323 372 11,000 360 Climbing Boston Center
08:38PM 42.4692 -73.4139 131° Southeast 347 399 11,000  Level Boston Center
08:39PM 42.3783 -73.2889 135° Southeast 358 412 11,000 -120 Level Boston Center
08:40PM 42.3103 -73.1925 134° Southeast 353 406 10,800 -600 Descending Boston Center
08:41PM 42.2483 -73.1075 135° Southeast 340 391 9,900 -1,200 Descending Boston Center
08:42PM 42.1925 -73.0200 131° Southeast 315 362 8,500 -1,500 Descending Boston Center
08:43PM 42.1764 -72.9136 102° East 287 330 6,900 -1,500 Descending Boston Center
08:44PM 42.1558 -72.8097 105° East 282 325 5,500 -1,560 Descending Boston Center
08:45PM 42.1311 -72.7144 109° East 277 319 3,800 -1,440 Descending Boston Center
08:46PM 42.0917 -72.6358 124° Southeast 257 296 2,700 -900 Descending Boston Center
08:47PM 42.0586 -72.5744 126° Southeast 223 257 2,100 -300 Descending Boston Center
08:48PM 42.0253 -72.5742 180° South 133 153 2,100 -360 Level Boston Center
08:49PM 41.9939 -72.6161 225° Southwest 133 153 1,400 -660 Descending Boston Center
08:50PM 41.9750 -72.6439 228° Southwest 132 152 800 -600 Descending Boston Center
08:51PM 41.9500 -72.6775 225° Southwest 124 143 300 -540 Descending Boston Center
08:53PM 41.9333 -72.6833 180° South  Level FlightAware Approximate
09:00PM 41.9392 -72.6834 180° South  Level Estimated
09:01PM 41.9333 -72.6833 180° South  Level FlightAware Approximate
09:02PM 41.9392 -72.6834 180° South  Level Estimated